sensor_id;sensor_type;location;lat;lon;timestamp;pressure;altitude;pressure_sealevel;temperature;humidity
30343;BME280;17145;49.902;8.680;'2024-02-04 00:58:03';101040;;;9;56
30343;BME280;17145;49.902;8.680;'2024-02-04 01:00:31';101040;;;9;56
30343;BME280;17145;49.902;8.680;'2024-02-04 01:02:58';101050;;;9;56
30343;BME280;17145;49.902;8.680;'2024-02-04 01:05:26';101050;;;9;56
30343;BME280;17145;49.902;8.680;'2024-02-04 01:07:53';101040;;;8;56
30343;BME280;17145;49.902;8.680;'2024-02-04 01:10:20';101040;;;9;56
30343;BME280;17145;49.902;8.680;'2024-02-04 01:12:48';101030;;;9;56
30343;BME280;17145;49.902;8.680;'2024-02-04 01:15:15';101020;;;8;57
30343;BME280;17145;49.902;8.680;'2024-02-04 01:17:43';101020;;;9;56
30343;BME280;17145;49.902;8.680;'2024-02-04 01:20:10';101020;;;9;56
30343;BME280;17145;49.902;8.680;'2024-02-04 01:22:38';101020;;;8;56
30343;BME280;17145;49.902;8.680;'2024-02-04 01:25:06';101030;;;8;57
30343;BME280;17145;49.902;8.680;'2024-02-04 01:27:34';101020;;;8;56
30343;BME280;17145;49.902;8.680;'2024-02-04 01:30:01';101010;;;9;56
30343;BME280;17145;49.902;8.680;'2024-02-04 01:32:28';101020;;;9;56
30343;BME280;17145;49.902;8.680;'2024-02-04 01:34:56';101020;;;9;56
30343;BME280;17145;49.902;8.680;'2024-02-04 01:37:23';101020;;;9;56
30343;BME280;17145;49.902;8.680;'2024-02-04 01:39:50';101010;;;8;56
30343;BME280;17145;49.902;8.680;'2024-02-04 01:42:18';101010;;;9;56
30343;BME280;17145;49.902;8.680;'2024-02-04 01:44:45';101010;;;9;56
30343;BME280;17145;49.902;8.680;'2024-02-04 01:47:12';101000;;;9;56
30343;BME280;17145;49.902;8.680;'2024-02-04 01:49:40';101010;;;9;56
30343;BME280;17145;49.902;8.680;'2024-02-04 01:52:07';101010;;;9;56
30343;BME280;17145;49.902;8.680;'2024-02-04 01:54:35';101000;;;9;56
30343;BME280;17145;49.902;8.680;'2024-02-04 01:57:04';100990;;;8;56
30343;BME280;17145;49.902;8.680;'2024-02-04 01:59:31';100990;;;8;56
30343;BME280;17145;49.902;8.680;'2024-02-04 02:01:59';101000;;;8;56
30343;BME280;17145;49.902;8.680;'2024-02-04 02:04:26';101020;;;9;56
30343;BME280;17145;49.902;8.680;'2024-02-04 02:06:54';101010;;;9;56
30343;BME280;17145;49.902;8.680;'2024-02-04 02:09:21';101000;;;9;56
30343;BME280;17145;49.902;8.680;'2024-02-04 02:11:48';101000;;;9;56
30343;BME280;17145;49.902;8.680;'2024-02-04 02:14:16';101010;;;9;56
30343;BME280;17145;49.902;8.680;'2024-02-04 02:16:43';101010;;;9;56
30343;BME280;17145;49.902;8.680;'2024-02-04 02:19:10';101020;;;9;56
30343;BME280;17145;49.902;8.680;'2024-02-04 02:21:38';101010;;;9;55
30343;BME280;17145;49.902;8.680;'2024-02-04 02:24:06';101000;;;9;56
30343;BME280;17145;49.902;8.680;'2024-02-04 02:26:33';100990;;;9;55
30343;BME280;17145;49.902;8.680;'2024-02-04 02:29:00';101000;;;9;55
30343;BME280;17145;49.902;8.680;'2024-02-04 02:31:27';101000;;;9;56
30343;BME280;17145;49.902;8.680;'2024-02-04 02:33:55';101000;;;9;55
30343;BME280;17145;49.902;8.680;'2024-02-04 02:36:22';101000;;;9;55
30343;BME280;17145;49.902;8.680;'2024-02-04 02:38:50';101010;;;8;56
30343;BME280;17145;49.902;8.680;'2024-02-04 02:41:17';101010;;;9;56
30343;BME280;17145;49.902;8.680;'2024-02-04 02:43:45';101020;;;8;57
30343;BME280;17145;49.902;8.680;'2024-02-04 02:46:12';101010;;;9;57
30343;BME280;17145;49.902;8.680;'2024-02-04 02:48:39';101010;;;8;56
30343;BME280;17145;49.902;8.680;'2024-02-04 02:51:07';101010;;;8;57
30343;BME280;17145;49.902;8.680;'2024-02-04 02:53:36';101000;;;8;56
30343;BME280;17145;49.902;8.680;'2024-02-04 02:56:05';101000;;;8;58
30343;BME280;17145;49.902;8.680;'2024-02-04 02:58:34';101020;;;8;58
30343;BME280;17145;49.902;8.680;'2024-02-04 03:01:01';101020;;;8;58
30343;BME280;17145;49.902;8.680;'2024-02-04 03:03:31';101030;;;8;59
30343;BME280;17145;49.902;8.680;'2024-02-04 03:05:59';101020;;;8;59
30343;BME280;17145;49.902;8.680;'2024-02-04 03:08:27';101020;;;8;59
30343;BME280;17145;49.902;8.680;'2024-02-04 03:11:02';101020;;;8;59
30343;BME280;17145;49.902;8.680;'2024-02-04 03:13:34';101020;;;8;60
30343;BME280;17145;49.902;8.680;'2024-02-04 03:16:09';101020;;;8;59
30343;BME280;17145;49.902;8.680;'2024-02-04 03:18:42';101020;;;8;59
30343;BME280;17145;49.902;8.680;'2024-02-04 03:21:23';101010;;;8;59
30343;BME280;17145;49.902;8.680;'2024-02-04 03:24:00';101020;;;9;59
30343;BME280;17145;49.902;8.680;'2024-02-04 03:26:28';101030;;;8;61
30343;BME280;17145;49.902;8.680;'2024-02-04 03:28:55';101030;;;8;62
30343;BME280;17145;49.902;8.680;'2024-02-04 03:31:23';101020;;;8;62
30343;BME280;17145;49.902;8.680;'2024-02-04 03:33:50';101010;;;8;62
30343;BME280;17145;49.902;8.680;'2024-02-04 03:36:23';101000;;;8;62
30343;BME280;17145;49.902;8.680;'2024-02-04 03:38:58';101000;;;8;62
30343;BME280;17145;49.902;8.680;'2024-02-04 03:41:29';101000;;;8;63
30343;BME280;17145;49.902;8.680;'2024-02-04 03:44:00';101000;;;8;62
30343;BME280;17145;49.902;8.680;'2024-02-04 03:46:28';100990;;;8;61
30343;BME280;17145;49.902;8.680;'2024-02-04 03:48:56';100990;;;8;61
30343;BME280;17145;49.902;8.680;'2024-02-04 03:51:23';100990;;;8;61
30343;BME280;17145;49.902;8.680;'2024-02-04 03:53:51';100990;;;8;62
30343;BME280;17145;49.902;8.680;'2024-02-04 03:56:18';100980;;;8;62
30343;BME280;17145;49.902;8.680;'2024-02-04 03:58:46';100970;;;8;62
30343;BME280;17145;49.902;8.680;'2024-02-04 04:01:13';100970;;;8;61
30343;BME280;17145;49.902;8.680;'2024-02-04 04:03:40';100960;;;8;62
30343;BME280;17145;49.902;8.680;'2024-02-04 04:06:08';100960;;;8;62
30343;BME280;17145;49.902;8.680;'2024-02-04 04:08:35';100960;;;8;62
30343;BME280;17145;49.902;8.680;'2024-02-04 04:11:03';100960;;;8;62
30343;BME280;17145;49.902;8.680;'2024-02-04 04:13:30';100960;;;8;62
30343;BME280;17145;49.902;8.680;'2024-02-04 04:15:58';100950;;;8;62
30343;BME280;17145;49.902;8.680;'2024-02-04 04:18:26';100950;;;8;61
30343;BME280;17145;49.902;8.680;'2024-02-04 04:20:53';100960;;;8;61
30343;BME280;17145;49.902;8.680;'2024-02-04 04:23:20';100950;;;8;61
30343;BME280;17145;49.902;8.680;'2024-02-04 04:25:47';100950;;;8;61
30343;BME280;17145;49.902;8.680;'2024-02-04 04:28:15';100960;;;8;61
30343;BME280;17145;49.902;8.680;'2024-02-04 04:30:42';100950;;;8;60
30343;BME280;17145;49.902;8.680;'2024-02-04 04:33:10';100950;;;8;60
30343;BME280;17145;49.902;8.680;'2024-02-04 04:35:37';100950;;;9;60
30343;BME280;17145;49.902;8.680;'2024-02-04 04:38:05';100950;;;8;60
30343;BME280;17145;49.902;8.680;'2024-02-04 04:40:32';100960;;;8;60
30343;BME280;17145;49.902;8.680;'2024-02-04 04:42:59';100960;;;9;60
30343;BME280;17145;49.902;8.680;'2024-02-04 04:45:27';100960;;;8;61
30343;BME280;17145;49.902;8.680;'2024-02-04 04:47:54';100950;;;8;60
30343;BME280;17145;49.902;8.680;'2024-02-04 04:50:22';100950;;;8;61
30343;BME280;17145;49.902;8.680;'2024-02-04 04:52:49';100950;;;8;62
30343;BME280;17145;49.902;8.680;'2024-02-04 04:55:16';100950;;;8;62
30343;BME280;17145;49.902;8.680;'2024-02-04 04:57:44';100950;;;8;61
30343;BME280;17145;49.902;8.680;'2024-02-04 05:00:12';100940;;;8;61
30343;BME280;17145;49.902;8.680;'2024-02-04 05:02:40';100950;;;8;61
30343;BME280;17145;49.902;8.680;'2024-02-04 05:05:11';100950;;;8;61
30343;BME280;17145;49.902;8.680;'2024-02-04 05:07:38';100940;;;8;61
30343;BME280;17145;49.902;8.680;'2024-02-04 05:10:06';100940;;;8;61
30343;BME280;17145;49.902;8.680;'2024-02-04 05:12:33';100940;;;8;61
30343;BME280;17145;49.902;8.680;'2024-02-04 05:15:01';100940;;;8;61
30343;BME280;17145;49.902;8.680;'2024-02-04 05:17:28';100940;;;8;60
30343;BME280;17145;49.902;8.680;'2024-02-04 05:19:56';100950;;;8;60
30343;BME280;17145;49.902;8.680;'2024-02-04 05:22:23';100950;;;8;60
30343;BME280;17145;49.902;8.680;'2024-02-04 05:24:51';100940;;;8;60
30343;BME280;17145;49.902;8.680;'2024-02-04 05:27:18';100940;;;8;61
30343;BME280;17145;49.902;8.680;'2024-02-04 05:29:45';100950;;;8;61
30343;BME280;17145;49.902;8.680;'2024-02-04 05:32:13';100950;;;8;61
30343;BME280;17145;49.902;8.680;'2024-02-04 05:34:40';100950;;;8;61
30343;BME280;17145;49.902;8.680;'2024-02-04 05:37:08';100940;;;8;61
30343;BME280;17145;49.902;8.680;'2024-02-04 05:39:35';100940;;;7;62
30343;BME280;17145;49.902;8.680;'2024-02-04 05:42:03';100940;;;8;61
30343;BME280;17145;49.902;8.680;'2024-02-04 05:44:30';100940;;;8;61
30343;BME280;17145;49.902;8.680;'2024-02-04 05:46:58';100950;;;8;61
30343;BME280;17145;49.902;8.680;'2024-02-04 05:49:25';100950;;;8;61
30343;BME280;17145;49.902;8.680;'2024-02-04 05:51:55';100950;;;8;61
30343;BME280;17145;49.902;8.680;'2024-02-04 05:54:22';100940;;;8;61
30343;BME280;17145;49.902;8.680;'2024-02-04 05:56:50';100950;;;8;61
30343;BME280;17145;49.902;8.680;'2024-02-04 05:59:17';100950;;;8;61
30343;BME280;17145;49.902;8.680;'2024-02-04 06:01:47';100950;;;8;61
30343;BME280;17145;49.902;8.680;'2024-02-04 06:04:16';100950;;;8;60
30343;BME280;17145;49.902;8.680;'2024-02-04 06:06:43';100950;;;8;61
30343;BME280;17145;49.902;8.680;'2024-02-04 06:09:10';100950;;;8;61
30343;BME280;17145;49.902;8.680;'2024-02-04 06:11:38';100950;;;8;60
30343;BME280;17145;49.902;8.680;'2024-02-04 06:14:05';100960;;;8;61
30343;BME280;17145;49.902;8.680;'2024-02-04 06:16:33';100950;;;8;61
30343;BME280;17145;49.902;8.680;'2024-02-04 06:19:00';100960;;;8;61
30343;BME280;17145;49.902;8.680;'2024-02-04 06:21:28';100960;;;8;61
30343;BME280;17145;49.902;8.680;'2024-02-04 06:23:55';100960;;;8;60
30343;BME280;17145;49.902;8.680;'2024-02-04 06:26:22';100950;;;8;61
30343;BME280;17145;49.902;8.680;'2024-02-04 06:28:50';100950;;;8;60
30343;BME280;17145;49.902;8.680;'2024-02-04 06:31:18';100950;;;8;60
30343;BME280;17145;49.902;8.680;'2024-02-04 06:33:45';100960;;;8;60
30343;BME280;17145;49.902;8.680;'2024-02-04 06:36:12';100950;;;8;60
30343;BME280;17145;49.902;8.680;'2024-02-04 06:38:44';100950;;;8;60
30343;BME280;17145;49.902;8.680;'2024-02-04 06:41:13';100950;;;8;60
30343;BME280;17145;49.902;8.680;'2024-02-04 06:43:41';100960;;;8;61
30343;BME280;17145;49.902;8.680;'2024-02-04 06:46:08';100960;;;8;60
30343;BME280;17145;49.902;8.680;'2024-02-04 06:48:35';100960;;;8;60
30343;BME280;17145;49.902;8.680;'2024-02-04 06:51:03';100960;;;8;60
30343;BME280;17145;49.902;8.680;'2024-02-04 06:53:30';100960;;;8;60
30343;BME280;17145;49.902;8.680;'2024-02-04 06:55:57';100960;;;8;60
30343;BME280;17145;49.902;8.680;'2024-02-04 06:58:25';100960;;;8;60
30343;BME280;17145;49.902;8.680;'2024-02-04 07:00:52';100970;;;8;60
30343;BME280;17145;49.902;8.680;'2024-02-04 07:03:19';100970;;;8;60
30343;BME280;17145;49.902;8.680;'2024-02-04 07:05:47';100960;;;8;60
30343;BME280;17145;49.902;8.680;'2024-02-04 07:08:14';100970;;;8;60
30343;BME280;17145;49.902;8.680;'2024-02-04 07:10:42';100960;;;8;60
30343;BME280;17145;49.902;8.680;'2024-02-04 07:13:09';100960;;;8;60
30343;BME280;17145;49.902;8.680;'2024-02-04 07:15:36';100950;;;8;60
30343;BME280;17145;49.902;8.680;'2024-02-04 07:18:04';100950;;;8;60
30343;BME280;17145;49.902;8.680;'2024-02-04 07:20:31';100950;;;8;61
30343;BME280;17145;49.902;8.680;'2024-02-04 07:22:59';100950;;;8;61
30343;BME280;17145;49.902;8.680;'2024-02-04 07:25:26';100960;;;8;61
30343;BME280;17145;49.902;8.680;'2024-02-04 07:27:53';100950;;;8;61
30343;BME280;17145;49.902;8.680;'2024-02-04 07:30:21';100960;;;7;62
30343;BME280;17145;49.902;8.680;'2024-02-04 07:32:48';100940;;;8;61
30343;BME280;17145;49.902;8.680;'2024-02-04 07:35:16';100940;;;8;61
30343;BME280;17145;49.902;8.680;'2024-02-04 07:37:43';100950;;;8;61
30343;BME280;17145;49.902;8.680;'2024-02-04 07:40:11';100950;;;8;61
30343;BME280;17145;49.902;8.680;'2024-02-04 07:42:39';100940;;;8;61
30343;BME280;17145;49.902;8.680;'2024-02-04 07:45:07';100940;;;8;61
30343;BME280;17145;49.902;8.680;'2024-02-04 07:47:35';100950;;;8;62
30343;BME280;17145;49.902;8.680;'2024-02-04 07:50:02';100950;;;8;61
30343;BME280;17145;49.902;8.680;'2024-02-04 07:52:30';100940;;;8;62
30343;BME280;17145;49.902;8.680;'2024-02-04 07:54:57';100940;;;8;62
30343;BME280;17145;49.902;8.680;'2024-02-04 07:57:24';100920;;;8;62
30343;BME280;17145;49.902;8.680;'2024-02-04 07:59:52';100930;;;8;61
30343;BME280;17145;49.902;8.680;'2024-02-04 08:02:19';100940;;;8;61
30343;BME280;17145;49.902;8.680;'2024-02-04 08:04:47';100940;;;8;61
30343;BME280;17145;49.902;8.680;'2024-02-04 08:07:14';100930;;;8;62
30343;BME280;17145;49.902;8.680;'2024-02-04 08:09:41';100920;;;7;62
30343;BME280;17145;49.902;8.680;'2024-02-04 08:12:09';100920;;;8;62
30343;BME280;17145;49.902;8.680;'2024-02-04 08:14:36';100920;;;8;62
30343;BME280;17145;49.902;8.680;'2024-02-04 08:17:03';100920;;;8;61
30343;BME280;17145;49.902;8.680;'2024-02-04 08:19:31';100920;;;8;61
30343;BME280;17145;49.902;8.680;'2024-02-04 08:21:58';100930;;;8;61
30343;BME280;17145;49.902;8.680;'2024-02-04 08:24:25';100930;;;8;61
30343;BME280;17145;49.902;8.680;'2024-02-04 08:26:53';100940;;;8;60
30343;BME280;17145;49.902;8.680;'2024-02-04 08:29:20';100940;;;8;60
30343;BME280;17145;49.902;8.680;'2024-02-04 08:31:48';100930;;;8;60
30343;BME280;17145;49.902;8.680;'2024-02-04 08:34:15';100940;;;8;61
30343;BME280;17145;49.902;8.680;'2024-02-04 08:36:43';100920;;;8;61
30343;BME280;17145;49.902;8.680;'2024-02-04 08:39:10';100930;;;7;62
30343;BME280;17145;49.902;8.680;'2024-02-04 08:41:37';100920;;;8;61
30343;BME280;17145;49.902;8.680;'2024-02-04 08:44:05';100940;;;7;62
30343;BME280;17145;49.902;8.680;'2024-02-04 08:46:32';100940;;;7;62
30343;BME280;17145;49.902;8.680;'2024-02-04 08:49:00';100940;;;7;63
30343;BME280;17145;49.902;8.680;'2024-02-04 08:51:27';100940;;;8;62
30343;BME280;17145;49.902;8.680;'2024-02-04 08:53:54';100940;;;8;62
30343;BME280;17145;49.902;8.680;'2024-02-04 08:56:22';100950;;;7;62
30343;BME280;17145;49.902;8.680;'2024-02-04 08:58:49';100950;;;8;61
30343;BME280;17145;49.902;8.680;'2024-02-04 09:01:19';100960;;;8;61
30343;BME280;17145;49.902;8.680;'2024-02-04 09:03:46';100940;;;8;61
30343;BME280;17145;49.902;8.680;'2024-02-04 09:06:14';100940;;;8;60
30343;BME280;17145;49.902;8.680;'2024-02-04 09:08:41';100950;;;8;61
30343;BME280;17145;49.902;8.680;'2024-02-04 09:11:09';100940;;;8;60
30343;BME280;17145;49.902;8.680;'2024-02-04 09:13:36';100940;;;8;60
30343;BME280;17145;49.902;8.680;'2024-02-04 09:16:04';100930;;;8;61
30343;BME280;17145;49.902;8.680;'2024-02-04 09:18:31';100930;;;8;61
30343;BME280;17145;49.902;8.680;'2024-02-04 09:20:59';100940;;;7;62
30343;BME280;17145;49.902;8.680;'2024-02-04 09:23:26';100920;;;8;62
30343;BME280;17145;49.902;8.680;'2024-02-04 09:25:53';100930;;;7;62
30343;BME280;17145;49.902;8.680;'2024-02-04 09:28:21';100920;;;8;61
30343;BME280;17145;49.902;8.680;'2024-02-04 09:30:48';100920;;;8;60
30343;BME280;17145;49.902;8.680;'2024-02-04 09:33:16';100910;;;8;60
30343;BME280;17145;49.902;8.680;'2024-02-04 09:35:43';100920;;;8;60
30343;BME280;17145;49.902;8.680;'2024-02-04 09:38:11';100930;;;8;60
30343;BME280;17145;49.902;8.680;'2024-02-04 09:40:38';100930;;;8;60
30343;BME280;17145;49.902;8.680;'2024-02-04 09:43:06';100940;;;8;61
30343;BME280;17145;49.902;8.680;'2024-02-04 09:45:33';100930;;;8;61
30343;BME280;17145;49.902;8.680;'2024-02-04 09:48:01';100930;;;8;61
30343;BME280;17145;49.902;8.680;'2024-02-04 09:50:28';100940;;;7;61
30343;BME280;17145;49.902;8.680;'2024-02-04 09:52:56';100940;;;7;62
30343;BME280;17145;49.902;8.680;'2024-02-04 09:55:25';100940;;;8;61
30343;BME280;17145;49.902;8.680;'2024-02-04 09:57:52';100940;;;8;61
30343;BME280;17145;49.902;8.680;'2024-02-04 10:00:20';100940;;;7;61
30343;BME280;17145;49.902;8.680;'2024-02-04 10:02:48';100930;;;8;61
30343;BME280;17145;49.902;8.680;'2024-02-04 10:05:16';100930;;;8;61
30343;BME280;17145;49.902;8.680;'2024-02-04 10:07:44';100920;;;8;61
30343;BME280;17145;49.902;8.680;'2024-02-04 10:10:12';100910;;;7;62
30343;BME280;17145;49.902;8.680;'2024-02-04 10:12:39';100920;;;8;61
30343;BME280;17145;49.902;8.680;'2024-02-04 10:15:07';100920;;;8;61
30343;BME280;17145;49.902;8.680;'2024-02-04 10:17:35';100920;;;8;61
30343;BME280;17145;49.902;8.680;'2024-02-04 10:20:02';100920;;;8;60
30343;BME280;17145;49.902;8.680;'2024-02-04 10:22:30';100920;;;8;60
30343;BME280;17145;49.902;8.680;'2024-02-04 10:24:57';100920;;;8;60
30343;BME280;17145;49.902;8.680;'2024-02-04 10:27:24';100920;;;8;59
30343;BME280;17145;49.902;8.680;'2024-02-04 10:29:52';100920;;;8;59
30343;BME280;17145;49.902;8.680;'2024-02-04 10:32:21';100920;;;9;59
30343;BME280;17145;49.902;8.680;'2024-02-04 10:34:48';100920;;;8;59
30343;BME280;17145;49.902;8.680;'2024-02-04 10:37:16';100920;;;8;59
30343;BME280;17145;49.902;8.680;'2024-02-04 10:39:43';100930;;;8;59
30343;BME280;17145;49.902;8.680;'2024-02-04 10:42:19';100910;;;8;59
30343;BME280;17145;49.902;8.680;'2024-02-04 10:44:48';100910;;;8;60
30343;BME280;17145;49.902;8.680;'2024-02-04 10:47:15';100910;;;8;60
30343;BME280;17145;49.902;8.680;'2024-02-04 10:49:43';100900;;;8;61
30343;BME280;17145;49.902;8.680;'2024-02-04 10:52:14';100910;;;8;61
30343;BME280;17145;49.902;8.680;'2024-02-04 10:54:45';100920;;;8;60
30343;BME280;17145;49.902;8.680;'2024-02-04 10:57:13';100910;;;9;59
30343;BME280;17145;49.902;8.680;'2024-02-04 10:59:40';100900;;;9;59
30343;BME280;17145;49.902;8.680;'2024-02-04 11:02:09';100900;;;9;59
30343;BME280;17145;49.902;8.680;'2024-02-04 11:04:37';100900;;;8;58
30343;BME280;17145;49.902;8.680;'2024-02-04 11:07:04';100900;;;9;58
30343;BME280;17145;49.902;8.680;'2024-02-04 11:09:33';100910;;;8;59
30343;BME280;17145;49.902;8.680;'2024-02-04 11:12:00';100920;;;8;59
30343;BME280;17145;49.902;8.680;'2024-02-04 11:14:28';100920;;;9;59
30343;BME280;17145;49.902;8.680;'2024-02-04 11:16:56';100930;;;9;58
30343;BME280;17145;49.902;8.680;'2024-02-04 11:19:25';100930;;;9;58
30343;BME280;17145;49.902;8.680;'2024-02-04 11:21:59';100920;;;8;59
30343;BME280;17145;49.902;8.680;'2024-02-04 11:24:27';100920;;;9;59
30343;BME280;17145;49.902;8.680;'2024-02-04 11:26:54';100920;;;8;59
30343;BME280;17145;49.902;8.680;'2024-02-04 11:29:22';100920;;;8;59
30343;BME280;17145;49.902;8.680;'2024-02-04 11:31:53';100920;;;8;60
30343;BME280;17145;49.902;8.680;'2024-02-04 11:34:21';100920;;;8;61
30343;BME280;17145;49.902;8.680;'2024-02-04 11:36:49';100910;;;8;60
30343;BME280;17145;49.902;8.680;'2024-02-04 11:39:16';100910;;;8;59
30343;BME280;17145;49.902;8.680;'2024-02-04 11:41:49';100910;;;8;59
30343;BME280;17145;49.902;8.680;'2024-02-04 11:44:20';100900;;;9;59
30343;BME280;17145;49.902;8.680;'2024-02-04 11:46:50';100910;;;9;58
30343;BME280;17145;49.902;8.680;'2024-02-04 11:49:19';100900;;;8;58
30343;BME280;17145;49.902;8.680;'2024-02-04 11:51:47';100900;;;9;58
30343;BME280;17145;49.902;8.680;'2024-02-04 11:54:16';100900;;;8;59
30343;BME280;17145;49.902;8.680;'2024-02-04 11:56:45';100900;;;7;61
30343;BME280;17145;49.902;8.680;'2024-02-04 11:59:15';100900;;;8;60
30343;BME280;17145;49.902;8.680;'2024-02-04 12:01:43';100900;;;8;60
30343;BME280;17145;49.902;8.680;'2024-02-04 12:04:11';100910;;;8;60
30343;BME280;17145;49.902;8.680;'2024-02-04 12:06:40';100880;;;9;59
30343;BME280;17145;49.902;8.680;'2024-02-04 12:09:08';100890;;;8;59
30343;BME280;17145;49.902;8.680;'2024-02-04 12:11:36';100880;;;8;59
30343;BME280;17145;49.902;8.680;'2024-02-04 12:14:08';100870;;;9;59
30343;BME280;17145;49.902;8.680;'2024-02-04 12:16:50';100870;;;8;59
30343;BME280;17145;49.902;8.680;'2024-02-04 12:22:11';100860;;;9;59
30343;BME280;17145;49.902;8.680;'2024-02-04 12:24:56';100840;;;8;59
30343;BME280;17145;49.902;8.680;'2024-02-04 12:27:26';100840;;;8;59
30343;BME280;17145;49.902;8.680;'2024-02-04 12:29:53';100830;;;9;59
30343;BME280;17145;49.902;8.680;'2024-02-04 12:32:21';100840;;;8;60
30343;BME280;17145;49.902;8.680;'2024-02-04 12:34:48';100840;;;8;59
30343;BME280;17145;49.902;8.680;'2024-02-04 12:37:17';100830;;;8;60
30343;BME280;17145;49.902;8.680;'2024-02-04 12:39:49';100840;;;8;60
30343;BME280;17145;49.902;8.680;'2024-02-04 12:42:17';100840;;;8;60
30343;BME280;17145;49.902;8.680;'2024-02-04 12:44:45';100840;;;9;60
30343;BME280;17145;49.902;8.680;'2024-02-04 12:47:23';100840;;;9;59
30343;BME280;17145;49.902;8.680;'2024-02-04 12:49:55';100850;;;9;59
30343;BME280;17145;49.902;8.680;'2024-02-04 12:52:22';100860;;;8;59
30343;BME280;17145;49.902;8.680;'2024-02-04 12:54:50';100860;;;8;60
30343;BME280;17145;49.902;8.680;'2024-02-04 12:57:18';100860;;;9;59
30343;BME280;17145;49.902;8.680;'2024-02-04 12:59:46';100860;;;9;59
30343;BME280;17145;49.902;8.680;'2024-02-04 13:02:16';100870;;;9;59
30343;BME280;17145;49.902;8.680;'2024-02-04 13:04:44';100860;;;8;59
30343;BME280;17145;49.902;8.680;'2024-02-04 13:07:13';100850;;;9;59
30343;BME280;17145;49.902;8.680;'2024-02-04 13:09:41';100850;;;9;58
30343;BME280;17145;49.902;8.680;'2024-02-04 13:12:09';100840;;;9;58
30343;BME280;17145;49.902;8.680;'2024-02-04 13:14:39';100830;;;9;58
30343;BME280;17145;49.902;8.680;'2024-02-04 13:17:09';100830;;;9;58
30343;BME280;17145;49.902;8.680;'2024-02-04 13:19:37';100820;;;9;58
30343;BME280;17145;49.902;8.680;'2024-02-04 13:22:04';100830;;;8;59
30343;BME280;17145;49.902;8.680;'2024-02-04 13:24:32';100830;;;8;59
30343;BME280;17145;49.902;8.680;'2024-02-04 13:26:59';100830;;;8;58
30343;BME280;17145;49.902;8.680;'2024-02-04 13:29:27';100820;;;9;58
30343;BME280;17145;49.902;8.680;'2024-02-04 13:31:58';100820;;;9;58
30343;BME280;17145;49.902;8.680;'2024-02-04 13:34:25';100810;;;9;58
30343;BME280;17145;49.902;8.680;'2024-02-04 13:36:58';100810;;;9;57
30343;BME280;17145;49.902;8.680;'2024-02-04 13:39:26';100800;;;9;57
30343;BME280;17145;49.902;8.680;'2024-02-04 13:41:53';100790;;;9;57
30343;BME280;17145;49.902;8.680;'2024-02-04 13:44:21';100790;;;9;57
30343;BME280;17145;49.902;8.680;'2024-02-04 13:46:51';100790;;;9;58
30343;BME280;17145;49.902;8.680;'2024-02-04 13:49:20';100780;;;9;58
30343;BME280;17145;49.902;8.680;'2024-02-04 13:51:48';100800;;;9;58
30343;BME280;17145;49.902;8.680;'2024-02-04 13:54:16';100790;;;9;58
30343;BME280;17145;49.902;8.680;'2024-02-04 13:56:46';100800;;;9;58
30343;BME280;17145;49.902;8.680;'2024-02-04 13:59:24';100790;;;9;59
30343;BME280;17145;49.902;8.680;'2024-02-04 14:01:54';100790;;;9;59
30343;BME280;17145;49.902;8.680;'2024-02-04 14:04:21';100790;;;9;59
30343;BME280;17145;49.902;8.680;'2024-02-04 14:06:49';100790;;;8;59
30343;BME280;17145;49.902;8.680;'2024-02-04 14:09:17';100780;;;9;58
30343;BME280;17145;49.902;8.680;'2024-02-04 14:11:44';100780;;;9;58
30343;BME280;17145;49.902;8.680;'2024-02-04 14:14:12';100770;;;9;57
30343;BME280;17145;49.902;8.680;'2024-02-04 14:16:39';100760;;;9;58
30343;BME280;17145;49.902;8.680;'2024-02-04 14:19:07';100770;;;9;57
30343;BME280;17145;49.902;8.680;'2024-02-04 14:21:34';100770;;;9;57
30343;BME280;17145;49.902;8.680;'2024-02-04 14:24:02';100770;;;9;58
30343;BME280;17145;49.902;8.680;'2024-02-04 14:26:29';100770;;;9;58
30343;BME280;17145;49.902;8.680;'2024-02-04 14:28:56';100760;;;9;57
30343;BME280;17145;49.902;8.680;'2024-02-04 14:31:24';100760;;;9;57
30343;BME280;17145;49.902;8.680;'2024-02-04 14:33:51';100780;;;9;58
30343;BME280;17145;49.902;8.680;'2024-02-04 14:36:19';100770;;;9;57
30343;BME280;17145;49.902;8.680;'2024-02-04 14:38:46';100770;;;9;58
30343;BME280;17145;49.902;8.680;'2024-02-04 14:41:14';100760;;;9;58
30343;BME280;17145;49.902;8.680;'2024-02-04 14:43:41';100770;;;8;59
30343;BME280;17145;49.902;8.680;'2024-02-04 14:46:08';100760;;;9;58
30343;BME280;17145;49.902;8.680;'2024-02-04 14:48:36';100760;;;9;58
30343;BME280;17145;49.902;8.680;'2024-02-04 14:51:04';100750;;;9;58
30343;BME280;17145;49.902;8.680;'2024-02-04 14:53:31';100760;;;9;58
30343;BME280;17145;49.902;8.680;'2024-02-04 14:55:58';100760;;;9;57
30343;BME280;17145;49.902;8.680;'2024-02-04 14:58:26';100750;;;9;57
30343;BME280;17145;49.902;8.680;'2024-02-04 15:00:53';100750;;;9;58
30343;BME280;17145;49.902;8.680;'2024-02-04 15:03:21';100760;;;9;57
30343;BME280;17145;49.902;8.680;'2024-02-04 15:05:48';100760;;;9;57
30343;BME280;17145;49.902;8.680;'2024-02-04 15:08:16';100760;;;9;57
30343;BME280;17145;49.902;8.680;'2024-02-04 15:10:43';100770;;;9;57
30343;BME280;17145;49.902;8.680;'2024-02-04 15:13:11';100770;;;9;58
30343;BME280;17145;49.902;8.680;'2024-02-04 15:15:39';100770;;;9;58
30343;BME280;17145;49.902;8.680;'2024-02-04 15:18:07';100770;;;9;58
30343;BME280;17145;49.902;8.680;'2024-02-04 15:20:34';100780;;;9;57
30343;BME280;17145;49.902;8.680;'2024-02-04 15:23:02';100770;;;9;58
30343;BME280;17145;49.902;8.680;'2024-02-04 15:25:29';100770;;;9;58